createdAt,value
2019-01-03T00:01:36.798Z,78.90
2019-01-03T00:04:20.049Z,78.20
2019-01-03T00:06:59.713Z,77.80
2019-01-03T00:09:46.546Z,77.00
2019-01-03T00:12:16.655Z,77.20
2019-01-03T00:15:01.914Z,76.30
2019-01-03T00:17:34.854Z,75.30
2019-01-03T00:20:21.627Z,75.60
2019-01-03T00:23:09.153Z,74.00
2019-01-03T00:25:42.128Z,73.60
2019-01-03T00:28:17.994Z,72.70
2019-01-03T00:30:48.254Z,72.80
2019-01-03T00:33:18.493Z,73.10
2019-01-03T00:35:54.615Z,74.60
2019-01-03T00:38:30.712Z,72.40
2019-01-03T00:41:09.369Z,71.80
2019-01-03T00:43:54.455Z,73.00
2019-01-03T00:46:24.635Z,73.00
2019-01-03T00:48:54.995Z,71.90
2019-01-03T00:51:41.488Z,71.90
2019-01-03T00:54:14.467Z,72.00
2019-01-03T00:56:56.933Z,71.10
2019-01-03T00:59:45.417Z,70.90
2019-01-03T01:02:18.622Z,71.30
2019-01-03T01:04:51.601Z,71.10
2019-01-03T01:07:33.747Z,70.40
2019-01-03T01:10:03.992Z,71.00
2019-01-03T01:12:34.087Z,70.30
2019-01-03T01:15:19.505Z,70.20
2019-01-03T01:17:55.395Z,70.40
2019-01-03T01:20:43.595Z,70.70
2019-01-03T01:23:26.094Z,70.90
2019-01-03T01:26:02.324Z,71.00
2019-01-03T01:28:32.555Z,70.50
2019-01-03T01:31:02.704Z,71.30
2019-01-03T01:33:41.854Z,70.70
2019-01-03T01:36:14.896Z,70.90
2019-01-03T01:39:00.281Z,71.00
2019-01-03T01:41:30.564Z,70.60
2019-01-03T01:44:16.719Z,71.60
2019-01-03T01:47:05.011Z,70.80
2019-01-03T01:49:51.722Z,70.80
2019-01-03T01:52:39.921Z,70.60
2019-01-03T01:55:10.009Z,70.20
2019-01-03T01:57:43.051Z,71.30
2019-01-03T02:00:13.154Z,71.20
2019-01-03T02:02:43.536Z,71.40
2019-01-03T02:05:13.736Z,71.00
2019-01-03T02:07:43.820Z,71.40
2019-01-03T02:10:17.261Z,70.80
2019-01-03T02:12:47.360Z,70.10
2019-01-03T02:15:34.054Z,70.30
2019-01-03T02:18:07.353Z,70.70
2019-01-03T02:20:40.190Z,70.70
2019-01-03T02:23:26.791Z,70.60
2019-01-03T02:26:08.722Z,70.70
2019-01-03T02:28:55.348Z,70.80
2019-01-03T02:31:40.636Z,70.30
2019-01-03T02:34:10.749Z,69.80
2019-01-03T02:36:40.967Z,70.40
2019-01-03T02:39:11.125Z,71.00
2019-01-03T02:41:53.355Z,71.10
2019-01-03T02:44:23.482Z,71.00
2019-01-03T02:46:53.658Z,70.40
2019-01-03T02:49:26.835Z,70.80
2019-01-03T02:52:13.534Z,70.60
2019-01-03T02:54:58.825Z,71.40
2019-01-03T02:57:47.133Z,71.10
2019-01-03T03:00:33.591Z,71.40
2019-01-03T03:03:22.137Z,72.10
2019-01-03T03:05:52.246Z,72.00
2019-01-03T03:08:22.416Z,71.40
2019-01-03T03:11:08.642Z,71.30
2019-01-03T03:13:47.534Z,70.10
2019-01-03T03:16:34.014Z,70.40
2019-01-03T03:19:15.905Z,71.10
2019-01-03T03:21:48.692Z,71.60
2019-01-03T03:24:21.776Z,71.40
2019-01-03T03:26:55.031Z,70.80
2019-01-03T03:29:25.213Z,70.90
2019-01-03T03:32:10.757Z,71.80
2019-01-03T03:34:46.881Z,72.70
2019-01-03T03:37:26.115Z,72.50
2019-01-03T03:40:12.454Z,72.80
2019-01-03T03:42:57.597Z,73.00
2019-01-03T03:45:30.295Z,73.80
2019-01-03T03:48:00.402Z,74.70
2019-01-03T03:50:42.644Z,76.00
2019-01-03T03:53:15.777Z,77.40
2019-01-03T03:55:54.496Z,78.20
2019-01-03T03:58:36.943Z,79.40
2019-01-03T04:01:16.374Z,79.20
2019-01-03T04:03:49.703Z,79.70
2019-01-03T04:06:35.007Z,80.30
2019-01-03T04:09:11.158Z,81.10
2019-01-03T04:11:59.514Z,80.60
2019-01-03T04:14:41.666Z,80.20
2019-01-03T04:17:23.684Z,80.20
2019-01-03T04:19:56.553Z,80.50
2019-01-03T04:22:26.848Z,80.90
2019-01-03T04:24:56.959Z,81.40
2019-01-03T04:27:29.908Z,81.30
2019-01-03T04:30:06.140Z,81.60
2019-01-03T04:32:48.559Z,81.30
2019-01-03T04:35:21.535Z,81.30
2019-01-03T04:38:07.716Z,82.10
2019-01-03T04:40:37.898Z,82.20
2019-01-03T04:43:14.215Z,82.80
2019-01-03T04:46:00.744Z,82.90
2019-01-03T04:48:33.719Z,83.40
2019-01-03T04:51:15.794Z,83.30
2019-01-03T04:53:55.379Z,83.90
2019-01-03T04:56:41.678Z,84.70
2019-01-03T04:59:11.834Z,84.80
2019-01-03T05:01:58.036Z,85.20
2019-01-03T05:04:34.088Z,85.30
2019-01-03T05:07:20.994Z,85.70
2019-01-03T05:10:07.300Z,86.00
2019-01-03T05:12:43.256Z,86.50
2019-01-03T05:15:31.645Z,87.10
2019-01-03T05:18:14.013Z,87.40
2019-01-03T05:20:44.118Z,87.90
2019-01-03T05:23:29.606Z,88.50
2019-01-03T05:26:15.629Z,89.10
2019-01-03T05:28:54.698Z,89.40
2019-01-03T05:31:27.923Z,89.90
2019-01-03T05:34:14.486Z,90.10
2019-01-03T05:36:44.555Z,90.10
2019-01-03T05:39:17.559Z,90.30
2019-01-03T05:41:47.811Z,90.50
2019-01-03T05:44:34.677Z,90.40
2019-01-03T05:47:06.645Z,90.60
2019-01-03T05:49:53.003Z,90.70
2019-01-03T05:52:39.634Z,90.90
2019-01-03T05:55:25.984Z,91.30
2019-01-03T05:57:58.795Z,91.60
2019-01-03T06:00:41.195Z,91.60
2019-01-03T06:03:26.453Z,91.70
2019-01-03T06:05:59.528Z,91.60
2019-01-03T06:08:32.534Z,91.40
2019-01-03T06:11:05.453Z,91.50
2019-01-03T06:13:52.002Z,91.60
2019-01-03T06:16:22.067Z,91.90
2019-01-03T06:19:04.597Z,92.40
2019-01-03T06:21:34.751Z,92.90
2019-01-03T06:24:21.270Z,93.30
2019-01-03T06:26:51.378Z,94.00
2019-01-03T06:29:24.355Z,94.40
2019-01-03T06:31:54.517Z,94.80
2019-01-03T06:34:24.672Z,95.20
2019-01-03T06:37:09.752Z,96.10
2019-01-03T06:39:39.966Z,97.00
2019-01-03T06:42:16.208Z,97.50
2019-01-03T06:45:01.470Z,97.80
2019-01-03T06:47:37.416Z,98.40
2019-01-03T06:50:08.433Z,98.80
2019-01-03T06:52:41.290Z,98.90
2019-01-03T06:55:27.523Z,99.20
2019-01-03T06:57:57.695Z,99.50
2019-01-03T07:00:34.852Z,99.90
2019-01-03T07:03:07.922Z,99.90
2019-01-03T07:05:56.120Z,99.90
2019-01-03T07:08:26.207Z,99.90
2019-01-03T07:11:14.753Z,99.90
2019-01-03T07:13:54.045Z,99.90
2019-01-03T07:16:39.138Z,99.90
2019-01-03T07:19:12.360Z,99.90
2019-01-03T07:21:42.640Z,99.90
2019-01-03T07:24:21.857Z,99.90
2019-01-03T07:27:10.193Z,99.90
2019-01-03T07:29:40.497Z,99.90
2019-01-03T07:32:13.331Z,99.90
2019-01-03T07:35:02.005Z,99.90
2019-01-03T07:37:35.102Z,99.90
2019-01-03T07:40:08.572Z,99.90
2019-01-03T07:42:41.354Z,99.90
2019-01-03T07:45:20.632Z,99.90
2019-01-03T07:47:50.787Z,99.90
2019-01-03T07:50:20.895Z,99.90
2019-01-03T07:52:53.489Z,99.90
2019-01-03T07:55:29.395Z,99.90
2019-01-03T07:58:15.959Z,99.90
2019-01-03T08:00:51.924Z,99.90
2019-01-03T08:03:25.214Z,99.90
2019-01-03T08:06:10.491Z,99.90
2019-01-03T08:08:49.491Z,99.90
2019-01-03T08:11:19.681Z,99.90
2019-01-03T08:13:49.797Z,99.70
2019-01-03T08:16:36.589Z,99.60
2019-01-03T08:19:08.070Z,99.50
2019-01-03T08:21:54.735Z,99.50
2019-01-03T08:24:40.349Z,99.30
2019-01-03T08:27:26.741Z,99.70
2019-01-03T08:29:59.278Z,99.40
2019-01-03T08:32:45.786Z,98.40
2019-01-03T08:35:18.435Z,98.20
2019-01-03T08:37:54.558Z,97.50
2019-01-03T08:40:36.557Z,97.20
2019-01-03T08:43:12.427Z,97.30
2019-01-03T08:45:42.533Z,97.30
2019-01-03T08:48:15.544Z,98.00
2019-01-03T08:51:02.258Z,97.60
2019-01-03T08:53:44.594Z,97.90
2019-01-03T08:56:14.773Z,97.60
2019-01-03T08:58:44.857Z,97.50
2019-01-03T09:01:26.841Z,97.50
2019-01-03T09:03:57.059Z,98.10
2019-01-03T09:06:43.586Z,97.20
2019-01-03T09:09:16.913Z,96.70
2019-01-03T09:12:02.350Z,95.90
2019-01-03T09:14:35.453Z,95.50
2019-01-03T09:17:17.514Z,94.30
2019-01-03T09:19:47.584Z,93.30
2019-01-03T09:22:23.881Z,86.30
2019-01-03T09:25:05.689Z,81.90
2019-01-03T09:27:41.914Z,84.40
2019-01-03T09:30:12.074Z,83.70
2019-01-03T09:32:57.605Z,84.10
2019-01-03T09:35:36.971Z,78.10
2019-01-03T09:38:25.271Z,72.30
2019-01-03T09:40:55.361Z,70.10
2019-01-03T09:43:28.048Z,72.60
2019-01-03T09:45:57.039Z,75.00
2019-01-03T09:48:25.552Z,76.30
2019-01-03T09:50:54.017Z,80.90
2019-01-03T09:53:22.512Z,84.30
2019-01-03T09:55:51.050Z,87.60
2019-01-03T09:58:19.557Z,87.60
2019-01-03T10:00:48.192Z,89.90
2019-01-03T10:03:16.690Z,91.20
2019-01-03T10:05:45.115Z,91.40
2019-01-03T10:08:19.540Z,91.60
2019-01-03T10:10:43.934Z,91.30
2019-01-03T10:13:12.531Z,91.30
2019-01-03T10:15:41.051Z,91.60
2019-01-03T10:18:09.652Z,91.60
2019-01-03T10:20:38.332Z,91.70
2019-01-03T10:23:06.966Z,91.90
2019-01-03T10:25:35.587Z,92.30
2019-01-03T10:28:04.311Z,91.60
2019-01-03T10:30:32.906Z,91.50
2019-01-03T10:33:01.467Z,91.20
2019-01-03T10:35:29.884Z,90.60
2019-01-03T10:37:58.619Z,90.70
2019-01-03T10:40:27.192Z,91.30
2019-01-03T10:42:55.665Z,90.80
2019-01-03T10:45:24.183Z,91.00
2019-01-03T10:47:52.640Z,91.60
2019-01-03T10:50:21.128Z,91.90
2019-01-03T10:52:49.678Z,92.20
2019-01-03T10:55:18.150Z,92.60
2019-01-03T10:57:46.594Z,92.80
2019-01-03T11:00:15.157Z,92.80
2019-01-03T11:02:43.714Z,92.50
2019-01-03T11:05:12.143Z,92.50
2019-01-03T11:07:40.747Z,93.00
2019-01-03T11:10:09.365Z,92.70
2019-01-03T11:12:38.017Z,91.70
2019-01-03T11:15:07.617Z,91.10
2019-01-03T11:17:36.233Z,90.90
2019-01-03T11:20:05.704Z,89.90
2019-01-03T11:22:34.393Z,90.40
2019-01-03T11:25:02.960Z,87.50
2019-01-03T11:27:31.443Z,86.60
2019-01-03T11:29:59.944Z,83.10
2019-01-03T11:32:28.390Z,82.70
2019-01-03T11:34:57.012Z,83.20
2019-01-03T11:37:25.634Z,82.70
2019-01-03T11:39:54.167Z,84.90
2019-01-03T11:42:22.642Z,85.20
2019-01-03T11:44:51.302Z,86.60
2019-01-03T11:47:19.833Z,88.20
2019-01-03T11:49:48.329Z,90.60
2019-01-03T11:52:16.940Z,85.40
2019-01-03T11:54:45.462Z,85.70
2019-01-03T11:57:13.903Z,86.50
2019-01-03T11:59:42.432Z,87.10
2019-01-03T12:02:10.842Z,86.80
2019-01-03T12:04:39.371Z,87.90
2019-01-03T12:07:07.951Z,88.40
2019-01-03T12:09:36.377Z,89.10
2019-01-03T12:12:04.930Z,89.20
2019-01-03T12:14:33.487Z,89.60
2019-01-03T12:17:01.988Z,90.30
2019-01-03T12:19:30.485Z,91.50
2019-01-03T12:21:59.022Z,80.60
2019-01-03T12:24:30.520Z,74.70
2019-01-03T12:26:57.627Z,72.60
2019-01-03T12:29:26.233Z,73.40
2019-01-03T12:31:54.793Z,72.70
2019-01-03T12:34:23.254Z,74.80
2019-01-03T12:36:51.880Z,76.30
2019-01-03T12:39:20.390Z,80.00
2019-01-03T12:41:49.017Z,72.30
2019-01-03T12:44:17.738Z,62.10
2019-01-03T12:46:46.229Z,60.40
2019-01-03T12:49:14.864Z,58.20
2019-01-03T12:51:43.606Z,61.10
2019-01-03T12:54:12.047Z,62.00
2019-01-03T12:56:40.570Z,59.60
2019-01-03T12:59:09.215Z,52.00
2019-01-03T13:01:39.114Z,47.80
2019-01-03T13:04:07.742Z,43.20
2019-01-03T13:06:36.413Z,41.50
2019-01-03T13:09:08.195Z,42.10
2019-01-03T13:11:36.674Z,46.20
2019-01-03T13:14:06.283Z,51.70
2019-01-03T13:16:34.779Z,53.90
2019-01-03T13:19:03.265Z,58.30
2019-01-03T13:21:31.751Z,56.50
2019-01-03T13:24:00.308Z,52.40
2019-01-03T13:26:28.875Z,49.60
2019-01-03T13:28:57.488Z,46.40
2019-01-03T13:31:26.008Z,48.20
2019-01-03T13:33:54.481Z,52.30
2019-01-03T13:36:23.036Z,55.80
2019-01-03T13:38:51.526Z,59.30
2019-01-03T13:41:20.005Z,61.70
2019-01-03T13:43:48.447Z,66.20
2019-01-03T13:46:16.903Z,70.10
2019-01-03T13:48:45.362Z,72.50
2019-01-03T13:51:13.895Z,76.10
2019-01-03T13:53:42.555Z,78.50
2019-01-03T13:56:11.039Z,80.80
2019-01-03T13:58:39.635Z,82.90
2019-01-03T14:01:08.167Z,84.40
2019-01-03T14:03:36.909Z,86.00
2019-01-03T14:06:05.551Z,87.70
2019-01-03T14:08:34.231Z,89.40
2019-01-03T14:11:02.798Z,89.60
2019-01-03T14:13:31.442Z,90.40
2019-01-03T14:16:00.027Z,90.80
2019-01-03T14:18:28.418Z,91.00
2019-01-03T14:20:57.031Z,91.50
2019-01-03T14:23:25.508Z,91.80
2019-01-03T14:25:54.035Z,92.20
2019-01-03T14:28:22.656Z,92.40
2019-01-03T14:30:51.191Z,92.30
2019-01-03T14:33:19.693Z,92.60
2019-01-03T14:35:48.596Z,92.80
2019-01-03T14:38:17.127Z,93.10
2019-01-03T14:40:45.619Z,93.50
2019-01-03T14:43:14.362Z,93.80
2019-01-03T14:45:43.188Z,94.00
2019-01-03T14:48:11.721Z,94.30
2019-01-03T14:50:40.402Z,94.30
2019-01-03T14:53:08.998Z,95.00
2019-01-03T14:55:37.634Z,95.00
2019-01-03T14:58:06.133Z,95.30
2019-01-03T15:00:34.744Z,94.60
2019-01-03T15:03:03.308Z,94.50
2019-01-03T15:05:31.903Z,94.20
2019-01-03T15:08:00.444Z,94.50
2019-01-03T15:10:28.995Z,94.70
2019-01-03T15:12:57.602Z,95.10
2019-01-03T15:15:26.225Z,95.10
2019-01-03T15:17:54.751Z,95.40
2019-01-03T15:20:23.386Z,95.60
2019-01-03T15:22:52.182Z,95.80
2019-01-03T15:25:20.768Z,95.90
2019-01-03T15:27:49.447Z,96.00
2019-01-03T15:30:17.974Z,96.10
2019-01-03T15:32:46.505Z,96.30
2019-01-03T15:35:15.203Z,96.40
2019-01-03T15:37:43.859Z,96.00
2019-01-03T15:40:12.480Z,96.00
2019-01-03T15:42:40.961Z,96.10
2019-01-03T15:45:09.525Z,96.40
2019-01-03T15:47:38.097Z,96.10
2019-01-03T15:50:07.426Z,96.30
2019-01-03T15:52:36.057Z,96.40
2019-01-03T15:55:04.943Z,96.60
2019-01-03T15:57:33.562Z,96.70
2019-01-03T16:00:02.088Z,96.80
2019-01-03T16:02:31.285Z,96.60
2019-01-03T16:05:00.019Z,97.00
2019-01-03T16:07:28.452Z,96.70
2019-01-03T16:09:56.912Z,96.90
2019-01-03T16:12:25.645Z,96.90
2019-01-03T16:14:54.195Z,97.40
2019-01-03T16:17:22.749Z,97.00
2019-01-03T16:19:51.308Z,97.50
2019-01-03T16:22:19.792Z,97.50
2019-01-03T16:24:48.324Z,97.40
2019-01-03T16:27:16.923Z,97.70
2019-01-03T16:29:45.391Z,97.80
2019-01-03T16:32:13.828Z,98.00
2019-01-03T16:34:42.430Z,97.70
2019-01-03T16:37:12.720Z,97.50
2019-01-03T16:39:41.260Z,97.00
2019-01-03T16:42:09.737Z,96.70
2019-01-03T16:44:40.104Z,96.50
2019-01-03T16:47:08.583Z,96.10
2019-01-03T16:49:37.092Z,96.20
2019-01-03T16:52:05.587Z,96.10
2019-01-03T16:54:34.021Z,96.30
2019-01-03T16:57:02.733Z,96.50
2019-01-03T16:59:31.431Z,96.70
2019-01-03T17:02:00.206Z,97.00
2019-01-03T17:04:28.861Z,96.90
2019-01-03T17:06:57.494Z,97.00
2019-01-03T17:09:26.127Z,97.20
2019-01-03T17:11:54.698Z,97.60
2019-01-03T17:14:23.370Z,97.60
2019-01-03T17:16:52.108Z,97.60
2019-01-03T17:19:21.055Z,97.80
2019-01-03T17:21:49.604Z,98.00
2019-01-03T17:24:18.165Z,98.00
2019-01-03T17:26:46.761Z,98.10
2019-01-03T17:29:15.258Z,98.30
2019-01-03T17:31:43.879Z,98.50
2019-01-03T17:34:12.463Z,98.80
2019-01-03T17:36:40.953Z,98.60
2019-01-03T17:39:09.473Z,98.70
2019-01-03T17:41:38.124Z,98.80
2019-01-03T17:44:06.875Z,98.50
2019-01-03T17:46:35.561Z,98.70
2019-01-03T17:49:04.181Z,98.90
2019-01-03T17:51:32.629Z,98.80
2019-01-03T17:54:01.192Z,99.40
2019-01-03T17:56:29.751Z,99.50
2019-01-03T17:58:58.286Z,99.50
2019-01-03T18:01:26.806Z,99.30
2019-01-03T18:03:55.357Z,99.30
2019-01-03T18:06:23.895Z,99.30
2019-01-03T18:08:52.497Z,99.20
2019-01-03T18:11:21.047Z,99.20
2019-01-03T18:13:49.562Z,99.10
2019-01-03T18:16:18.276Z,98.80
2019-01-03T18:18:46.859Z,99.10
2019-01-03T18:21:15.573Z,99.10
2019-01-03T18:23:44.050Z,99.20
2019-01-03T18:26:12.542Z,99.40
2019-01-03T18:28:41.351Z,99.40
2019-01-03T18:31:09.947Z,99.20
2019-01-03T18:33:39.151Z,99.10
2019-01-03T18:36:09.250Z,99.20
2019-01-03T18:38:37.915Z,99.70
2019-01-03T18:41:06.563Z,99.80
2019-01-03T18:43:35.172Z,99.90
2019-01-03T18:46:04.693Z,99.90
2019-01-03T18:48:33.261Z,99.90
2019-01-03T18:51:01.852Z,99.90
2019-01-03T18:53:30.554Z,99.90
2019-01-03T18:55:59.092Z,99.90
2019-01-03T18:58:27.691Z,99.90
2019-01-03T19:00:56.271Z,99.90
2019-01-03T19:03:24.871Z,99.90
2019-01-03T19:05:53.377Z,99.90
2019-01-03T19:08:21.785Z,99.90
2019-01-03T19:10:50.432Z,99.90
2019-01-03T19:13:18.893Z,99.90
2019-01-03T19:15:47.413Z,99.90
2019-01-03T19:18:16.068Z,99.90
2019-01-03T19:20:44.574Z,99.90
2019-01-03T19:23:13.299Z,99.90
2019-01-03T19:25:41.950Z,99.90
2019-01-03T19:28:10.454Z,99.90
2019-01-03T19:30:38.995Z,99.90
2019-01-03T19:33:07.551Z,99.90
2019-01-03T19:35:36.283Z,99.90
2019-01-03T19:38:04.684Z,99.90
2019-01-03T19:40:33.351Z,99.90
2019-01-03T19:43:03.023Z,99.90
2019-01-03T19:45:31.593Z,99.90
2019-01-03T19:48:00.410Z,99.90
2019-01-03T19:50:28.929Z,99.90
2019-01-03T19:52:57.493Z,99.90
2019-01-03T19:55:27.055Z,99.90
2019-01-03T19:57:55.630Z,99.90
2019-01-03T20:00:24.279Z,99.90
2019-01-03T20:02:53.079Z,99.90
2019-01-03T20:05:22.366Z,99.90
2019-01-03T20:07:50.978Z,99.90
2019-01-03T20:10:19.706Z,99.90
2019-01-03T20:12:48.457Z,99.90
2019-01-03T20:15:17.211Z,99.90
2019-01-03T20:17:45.913Z,99.90
2019-01-03T20:20:14.706Z,99.90
2019-01-03T20:22:44.253Z,99.90
2019-01-03T20:25:12.852Z,99.90
2019-01-03T20:27:41.397Z,99.90
2019-01-03T20:30:11.004Z,99.90
2019-01-03T20:32:39.652Z,99.90
2019-01-03T20:35:11.072Z,99.90
2019-01-03T20:37:39.621Z,99.90
2019-01-03T20:40:09.448Z,99.90
2019-01-03T20:42:38.254Z,99.90
2019-01-03T20:45:09.972Z,99.90
2019-01-03T20:47:38.815Z,99.90
2019-01-03T20:50:09.745Z,99.90
2019-01-03T20:52:38.279Z,99.90
2019-01-03T20:55:08.590Z,99.90
2019-01-03T20:57:37.085Z,99.90
2019-01-03T21:00:14.178Z,99.90
2019-01-03T21:02:42.862Z,99.90
2019-01-03T21:05:13.014Z,99.90
2019-01-03T21:07:41.489Z,99.90
2019-01-03T21:10:11.239Z,99.90
2019-01-03T21:12:41.026Z,99.90
2019-01-03T21:15:12.605Z,99.90
2019-01-03T21:17:41.213Z,99.90
2019-01-03T21:20:12.002Z,99.90
2019-01-03T21:22:40.762Z,99.90
2019-01-03T21:25:10.100Z,99.90
2019-01-03T21:27:38.684Z,99.90
2019-01-03T21:30:10.972Z,99.90
2019-01-03T21:32:39.613Z,99.90
2019-01-03T21:35:08.198Z,99.90
2019-01-03T21:37:36.794Z,99.90
2019-01-03T21:40:08.642Z,99.90
2019-01-03T21:42:37.072Z,99.90
2019-01-03T21:45:06.721Z,99.80
2019-01-03T21:47:35.199Z,99.70
2019-01-03T21:50:04.896Z,99.40
2019-01-03T21:52:33.522Z,99.20
2019-01-03T21:55:02.095Z,99.00
2019-01-03T21:57:30.605Z,98.90
2019-01-03T21:59:59.398Z,98.70
2019-01-03T22:02:27.969Z,98.70
2019-01-03T22:04:56.639Z,98.50
2019-01-03T22:07:25.301Z,98.50
2019-01-03T22:09:53.742Z,98.30
2019-01-03T22:12:22.267Z,98.20
2019-01-03T22:14:50.811Z,98.30
2019-01-03T22:17:19.356Z,98.10
2019-01-03T22:19:48.039Z,97.90
2019-01-03T22:22:16.750Z,97.60
2019-01-03T22:24:45.252Z,97.60
2019-01-03T22:27:13.752Z,97.70
2019-01-03T22:29:42.327Z,97.70
2019-01-03T22:32:10.939Z,97.70
2019-01-03T22:34:39.455Z,97.70
2019-01-03T22:37:07.991Z,97.80
2019-01-03T22:39:36.417Z,97.70
2019-01-03T22:42:05.035Z,97.70
2019-01-03T22:44:33.520Z,97.60
2019-01-03T22:47:01.988Z,97.50
2019-01-03T22:49:30.571Z,97.60
2019-01-03T22:51:59.251Z,97.50
2019-01-03T22:54:27.758Z,97.40
2019-01-03T22:56:56.284Z,97.60
2019-01-03T22:59:24.875Z,97.40
2019-01-03T23:01:53.439Z,97.40
2019-01-03T23:04:22.035Z,97.40
2019-01-03T23:06:50.592Z,97.40
2019-01-03T23:09:19.205Z,97.10
2019-01-03T23:11:47.791Z,97.00
2019-01-03T23:14:16.506Z,96.80
2019-01-03T23:16:44.925Z,96.80
2019-01-03T23:19:13.477Z,96.80
2019-01-03T23:21:42.411Z,97.10
2019-01-03T23:24:11.135Z,96.70
2019-01-03T23:26:39.716Z,96.60
2019-01-03T23:29:08.513Z,96.30
2019-01-03T23:31:37.453Z,96.40
2019-01-03T23:34:06.423Z,96.50
2019-01-03T23:36:34.967Z,96.40
2019-01-03T23:39:03.873Z,96.30
2019-01-03T23:41:32.548Z,96.30
2019-01-03T23:44:01.049Z,96.20
2019-01-03T23:46:29.558Z,96.00
2019-01-03T23:48:58.156Z,95.90
2019-01-03T23:51:26.777Z,96.10
2019-01-03T23:53:55.619Z,95.80
2019-01-03T23:56:24.090Z,96.10
2019-01-03T23:58:52.638Z,95.90
